Time;durP1;ratioP1;P1;durP2;ratioP2;P2;SDS_P1;SDS_P2;PMS_P1;PMS_P2;Temp;Humidity;BMP_temperature;BMP_pressure;BME280_temperature;BME280_humidity;BME280_pressure;Samples;Min_cycle;Max_cycle;Signal;HPM_P1;HPM_P2
2022/08/25 00:00:42;;;;;;;;;;;;;;;23.72;49.72;99902.84;1086683;54;19957;-79
2022/08/25 00:01:46;;;;;;;;;;;;;;;23.71;50.05;99908.56;1087618;39;20434;-80
2022/08/25 00:02:50;;;;;;;;;;;;;;;23.67;50.08;99903.56;1086724;54;19947;-80
2022/08/25 00:03:51;;;;;;;;;;;;;;;23.68;49.90;99904.41;1086391;54;20536;-79
2022/08/25 00:04:55;;;;;;;;;;;;;;;23.69;49.69;99908.78;1086528;54;19973;-80
2022/08/25 00:05:56;;;;;;;;;;;;;;;23.68;49.76;99913.41;1086433;54;19939;-80
2022/08/25 00:07:00;;;;;;;;;;;;;;;23.68;50.01;99912.59;1086065;54;19951;-79
2022/08/25 00:08:02;;;;;;;;;;;;;;;23.62;50.25;99911.63;1087853;39;20425;-78
2022/08/25 00:09:06;;;;;;;;;;;;;;;23.63;49.85;99907.00;1085605;46;20509;-79
2022/08/25 00:10:08;;;;;;;;;;;;;;;23.62;50.04;99908.91;1085840;54;20053;-79
2022/08/25 00:11:13;;;;;;;;;;;;;;;23.60;50.05;99893.84;1085719;54;19946;-79
2022/08/25 00:12:14;;;;;;;;;;;;;;;23.61;49.86;99901.78;1086984;39;20428;-79
2022/08/25 00:13:18;;;;;;;;;;;;;;;23.59;50.36;99903.91;1085858;54;19946;-78
2022/08/25 00:14:20;;;;;;;;;;;;;;;23.60;49.95;99896.56;1085684;54;19957;-79
2022/08/25 00:15:24;;;;;;;;;;;;;;;23.62;50.23;99897.13;1086229;54;19947;-80
2022/08/25 00:16:30;;;;;;;;;;;;;;;23.61;50.05;99901.78;1086123;54;20018;-80
2022/08/25 00:17:33;;;;;;;;;;;;;;;23.61;49.97;99895.50;1086192;54;19946;-78
2022/08/25 00:18:36;;;;;;;;;;;;;;;23.60;50.02;99897.38;1086063;54;19958;-78
2022/08/25 00:19:40;;;;;;;;;;;;;;;23.59;50.34;99893.00;1086260;54;19957;-79
2022/08/25 00:20:41;;;;;;;;;;;;;;;23.58;50.49;99895.97;1086146;54;19978;-80
2022/08/25 00:21:46;;;;;;;;;;;;;;;23.55;50.42;99897.28;1086427;54;19958;-79
2022/08/25 00:22:48;;;;;;;;;;;;;;;23.52;50.47;99897.72;1086683;39;20362;-79
2022/08/25 00:23:51;;;;;;;;;;;;;;;23.49;50.36;99896.31;1086177;54;19942;-80
2022/08/25 00:24:53;;;;;;;;;;;;;;;23.49;50.28;99896.31;1086285;54;19957;-79
2022/08/25 00:25:56;;;;;;;;;;;;;;;23.47;50.59;99895.69;1086308;54;20449;-79
2022/08/25 00:26:58;;;;;;;;;;;;;;;23.47;50.65;99898.44;1086761;46;20010;-80
2022/08/25 00:28:02;;;;;;;;;;;;;;;23.38;51.60;99897.09;1087691;46;20328;-79
2022/08/25 00:29:03;;;;;;;;;;;;;;;23.34;51.44;99890.44;1086703;54;19953;-79
2022/08/25 00:30:07;;;;;;;;;;;;;;;23.35;50.92;99892.09;1087220;39;20785;-80
2022/08/25 00:31:10;;;;;;;;;;;;;;;23.35;50.73;99900.28;1087018;54;19994;-80
2022/08/25 00:32:17;;;;;;;;;;;;;;;23.32;51.20;99890.69;1088240;47;19966;-80
2022/08/25 00:33:18;;;;;;;;;;;;;;;23.29;51.13;99893.88;1087578;47;19950;-77
2022/08/25 00:34:26;;;;;;;;;;;;;;;23.24;51.41;99893.75;1087114;47;20247;-79
2022/08/25 00:35:27;;;;;;;;;;;;;;;23.18;51.93;99895.50;1086631;54;19954;-78
2022/08/25 00:36:31;;;;;;;;;;;;;;;23.17;51.65;99901.16;1087266;39;20522;-79
2022/08/25 00:37:32;;;;;;;;;;;;;;;23.15;52.05;99892.38;1088804;39;20330;-78
2022/08/25 00:38:37;;;;;;;;;;;;;;;23.10;52.31;99894.94;1086497;54;20006;-79
2022/08/25 00:39:38;;;;;;;;;;;;;;;23.00;53.00;99900.97;1086481;47;19953;-78
2022/08/25 00:40:42;;;;;;;;;;;;;;;23.00;52.62;99900.97;1086295;54;19951;-78
2022/08/25 00:41:43;;;;;;;;;;;;;;;22.97;52.63;99904.16;1086669;54;19970;-77
2022/08/25 00:42:47;;;;;;;;;;;;;;;22.92;52.92;99904.84;1086641;54;19950;-77
2022/08/25 00:43:50;;;;;;;;;;;;;;;22.90;52.89;99899.63;1086543;54;19958;-77
2022/08/25 00:44:54;;;;;;;;;;;;;;;22.91;52.82;99903.16;1086569;54;19953;-79
2022/08/25 00:45:55;;;;;;;;;;;;;;;22.91;52.53;99903.16;1086606;54;19957;-78
2022/08/25 00:47:00;;;;;;;;;;;;;;;22.90;52.62;99907.81;1086305;54;19946;-78
2022/08/25 00:48:04;;;;;;;;;;;;;;;22.88;52.61;99899.03;1086324;54;19947;-78
2022/08/25 00:49:10;;;;;;;;;;;;;;;22.84;53.12;99908.72;1086633;46;19986;-78
2022/08/25 00:50:11;;;;;;;;;;;;;;;22.84;52.83;99903.28;1086413;54;19954;-78
2022/08/25 00:51:18;;;;;;;;;;;;;;;22.84;52.72;99913.34;1086676;54;19943;-78
2022/08/25 00:52:23;;;;;;;;;;;;;;;22.79;52.67;99907.75;1086354;54;19943;-79
2022/08/25 00:53:25;;;;;;;;;;;;;;;22.74;53.38;99900.25;1086340;54;19951;-79
2022/08/25 00:54:30;;;;;;;;;;;;;;;22.73;53.05;99906.78;1086507;54;19971;-78
2022/08/25 00:55:33;;;;;;;;;;;;;;;22.71;53.34;99914.34;1087497;39;20685;-79
2022/08/25 00:56:37;;;;;;;;;;;;;;;22.69;53.25;99905.56;1086217;54;20524;-78
2022/08/25 00:57:41;;;;;;;;;;;;;;;22.69;53.16;99908.28;1086324;54;19967;-78
2022/08/25 00:58:45;;;;;;;;;;;;;;;22.71;53.11;99900.72;1086292;54;19950;-77
2022/08/25 00:59:46;;;;;;;;;;;;;;;22.71;53.20;99904.28;1086138;54;19950;-78
2022/08/25 01:00:51;;;;;;;;;;;;;;;22.73;53.07;99906.78;1086232;54;20488;-78
2022/08/25 01:01:56;;;;;;;;;;;;;;;22.75;53.00;99915.56;1086327;54;19969;-79
2022/08/25 01:02:57;;;;;;;;;;;;;;;22.75;53.19;99899.22;1086809;39;20408;-78
2022/08/25 01:04:04;;;;;;;;;;;;;;;22.76;53.38;99900.88;1086491;54;19985;-78
2022/08/25 01:05:05;;;;;;;;;;;;;;;22.74;53.39;99898.34;1086408;54;19950;-78
2022/08/25 01:06:10;;;;;;;;;;;;;;;22.77;52.99;99902.50;1086148;54;20018;-79
2022/08/25 01:07:13;;;;;;;;;;;;;;;22.76;53.47;99895.44;1086393;54;19951;-77
2022/08/25 01:08:19;;;;;;;;;;;;;;;22.71;53.46;99887.09;1090200;39;20884;-78
2022/08/25 01:09:21;;;;;;;;;;;;;;;22.69;53.71;99894.66;1087319;39;20438;-77
2022/08/25 01:10:25;;;;;;;;;;;;;;;22.63;53.99;99884.69;1087052;54;19938;-80
2022/08/25 01:11:26;;;;;;;;;;;;;;;22.52;53.96;99889.84;1088396;39;20349;-79
2022/08/25 01:12:30;;;;;;;;;;;;;;;22.49;54.37;99892.19;1086917;54;19957;-77
2022/08/25 01:13:34;;;;;;;;;;;;;;;22.40;54.96;99891.63;1086843;54;19968;-79
2022/08/25 01:14:39;;;;;;;;;;;;;;;22.34;54.77;99887.91;1086996;54;19950;-77
2022/08/25 01:15:40;;;;;;;;;;;;;;;22.29;55.35;99891.31;1086937;54;19957;-77
2022/08/25 01:16:45;;;;;;;;;;;;;;;22.26;55.26;99889.06;1087367;54;20627;-78
2022/08/25 01:17:49;;;;;;;;;;;;;;;22.24;55.13;99888.44;1087520;54;19942;-77
2022/08/25 01:18:55;;;;;;;;;;;;;;;22.24;55.01;99899.31;1087585;54;19965;-78
2022/08/25 01:19:58;;;;;;;;;;;;;;;22.24;55.34;99880.28;1087530;54;19950;-78
2022/08/25 01:21:05;;;;;;;;;;;;;;;22.25;55.08;99884.66;1087626;54;19939;-80
2022/08/25 01:22:06;;;;;;;;;;;;;;;22.18;55.59;99883.91;1087836;54;19953;-78
2022/08/25 01:23:10;;;;;;;;;;;;;;;22.22;55.32;99881.56;1087569;54;19927;-78
2022/08/25 01:24:17;;;;;;;;;;;;;;;22.22;55.72;99879.66;1087759;54;19923;-78
2022/08/25 01:25:26;;;;;;;;;;;;;;;22.25;55.28;99884.66;1087577;54;19938;-78
2022/08/25 01:26:32;;;;;;;;;;;;;;;22.26;55.42;99886.31;1087551;54;19923;-79
2022/08/25 01:27:33;;;;;;;;;;;;;;;22.22;55.50;99879.66;1087784;54;19942;-78
2022/08/25 01:28:37;;;;;;;;;;;;;;;22.21;55.31;99886.16;1087489;54;21025;-79
2022/08/25 01:29:39;;;;;;;;;;;;;;;22.18;55.59;99885.78;1089686;46;19946;-79
2022/08/25 01:30:43;;;;;;;;;;;;;;;22.19;55.65;99882.00;1087577;54;19950;-78
2022/08/25 01:31:44;;;;;;;;;;;;;;;22.15;55.91;99884.34;1087858;46;19946;-78
2022/08/25 01:32:48;;;;;;;;;;;;;;;22.16;55.89;99879.72;1088101;46;19946;-80
2022/08/25 01:33:49;;;;;;;;;;;;;;;22.19;55.74;99880.13;1087046;54;19946;-78
2022/08/25 01:34:53;;;;;;;;;;;;;;;22.21;55.56;99875.25;1087047;54;19966;-78
2022/08/25 01:35:55;;;;;;;;;;;;;;;22.19;55.57;99879.28;1087330;54;19938;-78
2022/08/25 01:37:01;;;;;;;;;;;;;;;22.17;56.04;99873.22;1086871;54;19998;-78
2022/08/25 01:38:04;;;;;;;;;;;;;;;22.16;55.74;99875.13;1087660;46;19958;-78
2022/08/25 01:39:08;;;;;;;;;;;;;;;22.14;55.90;99869.06;1087211;54;19942;-77
2022/08/25 01:40:10;;;;;;;;;;;;;;;22.11;55.89;99870.34;1087655;54;19939;-77
2022/08/25 01:41:14;;;;;;;;;;;;;;;22.06;56.28;99874.81;1088689;46;20016;-79
2022/08/25 01:42:23;;;;;;;;;;;;;;;22.02;56.34;99868.97;1087260;54;19951;-78
2022/08/25 01:43:32;;;;;;;;;;;;;;;22.02;56.15;99876.31;1086921;54;20011;-80
2022/08/25 01:44:34;;;;;;;;;;;;;;;22.00;56.59;99876.53;1087338;54;19950;-79
2022/08/25 01:45:39;;;;;;;;;;;;;;;21.97;56.37;99876.97;1087322;54;19948;-78
2022/08/25 01:46:41;;;;;;;;;;;;;;;21.99;56.74;99880.31;1087132;54;19942;-76
2022/08/25 01:47:45;;;;;;;;;;;;;;;21.96;56.53;99875.34;1087281;54;19939;-78
2022/08/25 01:48:46;;;;;;;;;;;;;;;21.94;56.43;99872.81;1087215;54;19946;-78
2022/08/25 01:49:50;;;;;;;;;;;;;;;21.97;56.52;99883.25;1087194;54;19946;-78
2022/08/25 01:50:51;;;;;;;;;;;;;;;21.97;56.80;99882.41;1086863;54;19950;-76
2022/08/25 01:52:07;;;;;;;;;;;;;;;21.95;56.56;99888.09;1087444;54;19994;-78
2022/08/25 01:53:14;;;;;;;;;;;;;;;21.94;56.46;99878.25;1087164;54;19951;-78
2022/08/25 01:54:18;;;;;;;;;;;;;;;21.94;56.79;99885.59;1087132;54;19976;-78
2022/08/25 01:55:19;;;;;;;;;;;;;;;21.91;56.98;99886.91;1086923;54;19950;-81
2022/08/25 01:56:23;;;;;;;;;;;;;;;21.85;56.89;99879.59;1087190;47;19951;-77
2022/08/25 01:57:24;;;;;;;;;;;;;;;21.94;56.44;99889.16;1087334;54;19942;-77
2022/08/25 01:58:30;;;;;;;;;;;;;;;21.94;56.47;99880.16;1087185;54;19955;-77
2022/08/25 01:59:31;;;;;;;;;;;;;;;22.01;56.13;99880.94;1087055;54;19988;-78
2022/08/25 02:00:35;;;;;;;;;;;;;;;22.07;56.17;99880.00;1086782;54;19946;-77
2022/08/25 02:01:36;;;;;;;;;;;;;;;22.09;56.00;99879.81;1087028;54;19959;-79
2022/08/25 02:02:41;;;;;;;;;;;;;;;22.09;56.56;99879.81;1086966;54;20006;-80
2022/08/25 02:03:43;;;;;;;;;;;;;;;22.11;56.19;99877.69;1087125;54;19949;-78
2022/08/25 02:04:48;;;;;;;;;;;;;;;22.12;55.66;99880.19;1086719;54;19992;-77
2022/08/25 02:05:49;;;;;;;;;;;;;;;22.16;55.56;99883.28;1089944;39;20290;-79
2022/08/25 02:06:53;;;;;;;;;;;;;;;22.19;55.82;99879.28;1086570;54;19951;-79
2022/08/25 02:07:54;;;;;;;;;;;;;;;22.21;55.84;99883.44;1086741;54;19947;-78
2022/08/25 02:09:03;;;;;;;;;;;;;;;22.23;55.37;99885.94;1087562;39;20459;-79
2022/08/25 02:10:05;;;;;;;;;;;;;;;22.27;55.58;99882.56;1086709;54;19953;-78
2022/08/25 02:11:13;;;;;;;;;;;;;;;22.28;55.27;99876.06;1086615;54;20512;-78
2022/08/25 02:12:14;;;;;;;;;;;;;;;22.29;55.31;99885.03;1086743;54;19942;-79
2022/08/25 02:13:19;;;;;;;;;;;;;;;22.29;55.56;99874.97;1086506;54;19951;-78
2022/08/25 02:14:20;;;;;;;;;;;;;;;22.28;55.41;99881.50;1087014;54;19946;-78
2022/08/25 02:15:24;;;;;;;;;;;;;;;22.24;55.52;99882.16;1086567;54;19995;-79
2022/08/25 02:16:27;;;;;;;;;;;;;;;22.23;55.51;99886.78;1086558;54;19954;-77
2022/08/25 02:17:31;;;;;;;;;;;;;;;22.22;55.73;99890.53;1086913;54;19943;-79
2022/08/25 02:18:32;;;;;;;;;;;;;;;22.19;55.71;99888.28;1087096;46;19950;-78
2022/08/25 02:19:36;;;;;;;;;;;;;;;22.17;55.42;99887.69;1086711;54;20508;-78
2022/08/25 02:20:37;;;;;;;;;;;;;;;22.14;55.60;99893.56;1086363;54;20734;-79
2022/08/25 02:21:41;;;;;;;;;;;;;;;22.12;55.61;99891.06;1085966;54;20535;-77
2022/08/25 02:22:42;;;;;;;;;;;;;;;22.10;55.77;99890.47;1085816;54;19946;-79
2022/08/25 02:23:46;;;;;;;;;;;;;;;22.08;55.93;99897.19;1085967;54;20637;-77
2022/08/25 02:24:53;;;;;;;;;;;;;;;22.04;56.07;99890.53;1085985;54;20504;-77
2022/08/25 02:25:56;;;;;;;;;;;;;;;22.03;56.09;99891.56;1086075;54;19947;-77
2022/08/25 02:27:00;;;;;;;;;;;;;;;22.02;56.17;99893.47;1086143;54;19958;-78
2022/08/25 02:28:01;;;;;;;;;;;;;;;21.96;56.47;99892.47;1086493;54;20069;-78
2022/08/25 02:29:06;;;;;;;;;;;;;;;21.85;56.95;99895.94;1086086;54;19951;-78
2022/08/25 02:30:08;;;;;;;;;;;;;;;21.84;56.79;99899.69;1086236;54;19950;-78
2022/08/25 02:31:11;;;;;;;;;;;;;;;21.83;57.05;99898.03;1086360;54;19953;-79
2022/08/25 02:32:13;;;;;;;;;;;;;;;21.85;56.85;99898.66;1086644;46;20410;-78
2022/08/25 02:33:16;;;;;;;;;;;;;;;21.86;56.47;99903.03;1086377;54;19958;-77
2022/08/25 02:34:18;;;;;;;;;;;;;;;21.81;56.65;99895.53;1086537;54;19943;-79
2022/08/25 02:35:22;;;;;;;;;;;;;;;21.83;56.88;99887.16;1086912;54;19962;-77
2022/08/25 02:36:23;;;;;;;;;;;;;;;21.85;56.66;99892.38;1087769;46;19962;-79
2022/08/25 02:37:28;;;;;;;;;;;;;;;21.84;56.70;99894.25;1087179;54;19955;-77
2022/08/25 02:38:29;;;;;;;;;;;;;;;21.87;56.56;99893.00;1087032;54;19957;-78
2022/08/25 02:39:33;;;;;;;;;;;;;;;21.85;56.86;99893.22;1087232;54;19938;-78
2022/08/25 02:40:37;;;;;;;;;;;;;;;21.80;57.16;99893.06;1087139;54;19942;-77
2022/08/25 02:41:41;;;;;;;;;;;;;;;21.79;56.68;99889.50;1086993;54;19943;-79
2022/08/25 05:35:14;;;;;;;;;;;;;;;20.47;63.44;99862.88;1083911;54;19946;-79
2022/08/25 05:36:18;;;;;;;;;;;;;;;20.40;63.59;99863.69;1084450;54;19939;-76
2022/08/25 05:38:53;;;;;;;;;;;;;;;20.37;63.60;99864.16;1083997;54;19946;-76
2022/08/25 05:39:54;;;;;;;;;;;;;;;20.32;63.64;99861.22;1084030;54;19947;-77
2022/08/25 05:40:59;;;;;;;;;;;;;;;20.29;64.03;99871.69;1083817;54;19947;-77
2022/08/25 05:42:00;;;;;;;;;;;;;;;20.29;63.77;99869.81;1084033;54;19946;-76
2022/08/25 05:43:04;;;;;;;;;;;;;;;20.36;63.37;99861.63;1083775;54;19939;-76
2022/08/25 05:44:05;;;;;;;;;;;;;;;20.44;63.21;99864.13;1084404;39;20346;-77
2022/08/25 05:46:55;;;;;;;;;;;;;;;20.41;63.52;99859.94;1083380;54;19939;-76
2022/08/25 05:47:56;;;;;;;;;;;;;;;20.46;63.41;99867.44;1083737;54;19947;-77
2022/08/25 05:49:00;;;;;;;;;;;;;;;20.53;63.12;99862.00;1083850;54;20449;-76
2022/08/25 05:50:02;;;;;;;;;;;;;;;20.60;62.62;99862.78;1083711;54;20468;-76
2022/08/25 05:51:08;;;;;;;;;;;;;;;20.63;62.46;99861.56;1083795;54;20524;-75
2022/08/25 05:52:15;;;;;;;;;;;;;;;20.65;62.51;99863.00;1084409;31;20386;-78
2022/08/25 05:53:16;;;;;;;;;;;;;;;20.69;62.38;99861.50;1083912;54;19966;-76
2022/08/25 05:54:23;;;;;;;;;;;;;;;20.73;61.98;99857.34;1083946;54;19950;-78
2022/08/25 05:55:24;;;;;;;;;;;;;;;20.73;62.58;99857.34;1084057;54;19978;-77
2022/08/25 05:56:32;;;;;;;;;;;;;;;20.76;61.86;99853.38;1084301;54;19957;-80
2022/08/25 05:57:34;;;;;;;;;;;;;;;20.73;62.44;99857.34;1083889;54;19953;-77
2022/08/25 05:58:44;;;;;;;;;;;;;;;20.73;62.45;99853.78;1084482;54;19947;-76
2022/08/25 05:59:46;;;;;;;;;;;;;;;20.76;62.38;99855.25;1084196;54;19951;-79
2022/08/25 06:00:50;;;;;;;;;;;;;;;20.77;62.14;99862.38;1085180;54;19967;-78
2022/08/25 06:03:33;;;;;;;;;;;;;;;20.81;62.35;99855.44;1084400;54;19938;-77
2022/08/25 06:04:45;;;;;;;;;;;;;;;20.86;61.73;99856.44;1083924;54;20611;-77
